Time;durP1;ratioP1;P1;durP2;ratioP2;P2;SDS_P1;SDS_P2;PMS_P1;PMS_P2;Temp;Humidity;BMP_temperature;BMP_pressure;BME280_temperature;BME280_humidity;BME280_pressure;Samples;Min_cycle;Max_cycle;Signal;HPM_P1;HPM_P2
2023/05/25 00:08:06;;;;;;;;;;;;;;;11.88;81.85;102678.19;20557330;28;19946;-55
2023/05/25 00:18:27;;;;;;;;;;;;;;;11.68;82.45;102674.84;20584082;28;20049;-56
2023/05/25 00:28:48;;;;;;;;;;;;;;;11.49;83.67;102684.38;20572205;28;20021;-56
2023/05/25 00:39:10;;;;;;;;;;;;;;;11.36;83.64;102693.06;20642498;22;19925;-54
2023/05/25 00:49:34;;;;;;;;;;;;;;;11.22;84.19;102699.16;20706245;28;19933;-53
2023/05/25 00:59:56;;;;;;;;;;;;;;;11.08;84.41;102684.50;20684340;28;20669;-55
2023/05/25 01:10:21;;;;;;;;;;;;;;;10.95;84.96;102695.75;20712209;28;20339;-55
2023/05/25 01:20:52;;;;;;;;;;;;;;;10.90;84.65;102689.72;20704530;28;20380;-54
2023/05/25 01:31:15;;;;;;;;;;;;;;;10.78;87.35;102687.16;20700053;28;19933;-54
2023/05/25 01:41:36;;;;;;;;;;;;;;;10.69;85.14;102689.75;20698256;28;20009;-53
2023/05/25 01:52:16;;;;;;;;;;;;;;;10.54;86.28;102689.75;20687157;28;20341;-53
2023/05/25 02:02:39;;;;;;;;;;;;;;;10.46;86.03;102698.38;20691798;28;19929;-54
2023/05/25 02:13:01;;;;;;;;;;;;;;;10.43;85.20;102704.41;20678138;28;19934;-54
2023/05/25 02:23:22;;;;;;;;;;;;;;;10.34;85.94;102695.78;20668552;28;19940;-55
2023/05/25 02:33:44;;;;;;;;;;;;;;;10.19;86.48;102698.34;20690061;28;20420;-55
2023/05/25 02:44:05;;;;;;;;;;;;;;;10.09;86.25;102710.38;20707886;28;19930;-54
2023/05/25 02:54:27;;;;;;;;;;;;;;;10.06;87.46;102707.75;20696524;28;19929;-55
2023/05/25 03:04:52;;;;;;;;;;;;;;;10.13;86.86;102708.69;20699375;28;19929;-54
2023/05/25 03:15:13;;;;;;;;;;;;;;;10.06;86.65;102718.13;20718381;28;19930;-54
2023/05/25 03:25:35;;;;;;;;;;;;;;;9.95;86.46;102735.31;20707010;28;19937;-55
2023/05/25 03:35:57;;;;;;;;;;;;;;;9.92;86.38;102736.19;20692660;28;19929;-54
2023/05/25 03:46:18;;;;;;;;;;;;;;;9.90;88.25;102748.25;20713463;28;19931;-55
2023/05/25 03:56:40;;;;;;;;;;;;;;;9.90;87.13;102757.72;20714194;28;20328;-54
2023/05/25 04:07:01;;;;;;;;;;;;;;;9.82;87.29;102749.06;20715607;28;19926;-53
2023/05/25 04:17:24;;;;;;;;;;;;;;;9.91;88.23;102757.72;20709071;28;20017;-56
2023/05/25 04:27:45;;;;;;;;;;;;;;;10.02;87.62;102762.91;20702459;28;20399;-57
2023/05/25 04:38:07;;;;;;;;;;;;;;;10.06;88.07;102770.72;20719356;28;19940;-56
2023/05/25 04:48:31;;;;;;;;;;;;;;;10.13;88.11;102776.78;20703872;28;20384;-57
2023/05/25 04:58:52;;;;;;;;;;;;;;;10.32;88.45;102788.06;20702633;28;20001;-56
2023/05/25 05:09:14;;;;;;;;;;;;;;;10.49;88.50;102791.56;20706078;28;19926;-55
2023/05/25 05:19:35;;;;;;;;;;;;;;;10.75;88.28;102785.53;20707094;28;20024;-55
2023/05/25 05:29:57;;;;;;;;;;;;;;;11.08;88.83;102790.72;20698831;28;19944;-56
2023/05/25 05:40:19;;;;;;;;;;;;;;;11.42;88.00;102801.94;20708358;28;19925;-56
2023/05/25 05:50:40;;;;;;;;;;;;;;;11.62;90.05;102809.66;20700735;28;19930;-55
2023/05/25 06:01:03;;;;;;;;;;;;;;;11.74;88.34;102810.53;20714830;28;19925;-56
2023/05/25 06:11:25;;;;;;;;;;;;;;;11.87;88.88;102837.28;20717612;28;19936;-56
2023/05/25 06:21:46;;;;;;;;;;;;;;;12.06;91.50;102833.78;20694339;28;20020;-56
2023/05/25 06:32:09;;;;;;;;;;;;;;;12.18;88.67;102843.25;20698252;28;20040;-55
2023/05/25 06:42:31;;;;;;;;;;;;;;;12.35;86.30;102847.47;20717649;28;19988;-56
2023/05/25 06:52:52;;;;;;;;;;;;;;;12.57;87.94;102849.09;20713233;28;20016;-56
2023/05/25 07:03:14;;;;;;;;;;;;;;;12.93;84.20;102859.25;20713456;28;20282;-57
2023/05/25 07:13:35;;;;;;;;;;;;;;;13.37;82.31;102860.69;20702245;28;19936;-55
2023/05/25 07:23:57;;;;;;;;;;;;;;;13.51;78.19;102864.88;20710411;28;19925;-55
2023/05/25 07:34:19;;;;;;;;;;;;;;;13.41;77.76;102880.56;20728523;28;20372;-55
2023/05/25 07:44:40;;;;;;;;;;;;;;;13.46;76.79;102897.84;20723443;28;20407;-55
2023/05/25 07:55:02;;;;;;;;;;;;;;;13.62;77.78;102894.25;20715810;28;20056;-55
2023/05/25 08:05:24;;;;;;;;;;;;;;;14.05;73.28;102889.47;20708996;28;20415;-55
2023/05/25 08:15:45;;;;;;;;;;;;;;;14.07;74.02;102905.94;20704702;28;20044;-55
2023/05/25 08:26:10;;;;;;;;;;;;;;;14.20;74.74;102915.34;20693188;28;20008;-55
2023/05/25 08:36:52;;;;;;;;;;;;;;;14.09;75.00;102912.84;20701869;28;19980;-56
2023/05/25 08:47:15;;;;;;;;;;;;;;;14.28;74.65;102934.38;20705747;28;20616;-56
2023/05/25 08:57:49;;;;;;;;;;;;;;;14.16;73.25;102929.25;20704092;28;20160;-56
2023/05/25 09:08:11;;;;;;;;;;;;;;;14.45;73.00;102927.22;20716452;28;20051;-56
2023/05/25 09:18:32;;;;;;;;;;;;;;;14.66;72.59;102926.94;20699734;28;20377;-55
2023/05/25 09:28:54;;;;;;;;;;;;;;;14.73;71.17;102933.81;20701739;28;19930;-55
2023/05/25 09:39:16;;;;;;;;;;;;;;;14.91;70.91;102943.97;20697692;28;20296;-55
2023/05/25 09:49:38;;;;;;;;;;;;;;;14.72;72.03;102950.31;20713662;28;19932;-56
2023/05/25 09:59:59;;;;;;;;;;;;;;;14.78;71.85;102958.06;20698441;28;19933;-56
2023/05/25 10:10:21;;;;;;;;;;;;;;;14.89;72.18;102971.81;20713068;28;19929;-55
2023/05/25 10:20:45;;;;;;;;;;;;;;;14.90;71.31;102972.69;20714999;28;20294;-55
2023/05/25 10:31:08;;;;;;;;;;;;;;;14.97;70.92;102975.19;20789822;28;19952;-56
2023/05/25 10:41:29;;;;;;;;;;;;;;;15.02;71.47;102981.19;20787302;28;19925;-56
2023/05/25 10:51:56;;;;;;;;;;;;;;;15.02;68.71;102991.63;20779952;28;19933;-55
2023/05/25 11:02:21;;;;;;;;;;;;;;;15.37;69.52;102974.59;20797268;28;19940;-56
2023/05/25 11:12:45;;;;;;;;;;;;;;;15.44;70.04;102977.13;20784860;28;19930;-56
2023/05/25 11:23:22;;;;;;;;;;;;;;;15.78;69.47;102967.00;20782698;28;19925;-55
2023/05/25 11:33:44;;;;;;;;;;;;;;;15.71;67.69;102950.56;20802868;28;19925;-55
2023/05/25 11:44:05;;;;;;;;;;;;;;;15.78;68.94;102959.16;20794718;28;20037;-56
2023/05/25 11:54:27;;;;;;;;;;;;;;;16.22;68.03;102954.00;20785271;28;19958;-55
2023/05/25 12:04:52;;;;;;;;;;;;;;;16.23;67.35;102960.94;20775536;28;20494;-56
2023/05/25 12:15:15;;;;;;;;;;;;;;;16.00;67.77;102947.47;20778321;28;20385;-55
2023/05/25 12:25:41;;;;;;;;;;;;;;;16.14;67.67;102942.81;20775335;28;20357;-55
2023/05/25 12:36:12;;;;;;;;;;;;;;;16.13;67.32;102941.97;20773170;28;19970;-56
2023/05/25 12:46:33;;;;;;;;;;;;;;;16.22;67.67;102927.88;20781930;28;20415;-56
2023/05/25 12:56:55;;;;;;;;;;;;;;;16.20;67.42;102924.44;20768606;28;19925;-55
2023/05/25 13:07:17;;;;;;;;;;;;;;;16.13;67.98;102927.19;20764628;28;19935;-54
2023/05/25 13:17:40;;;;;;;;;;;;;;;16.11;68.92;102914.16;20768766;28;20008;-55
2023/05/25 13:28:01;;;;;;;;;;;;;;;16.20;67.35;102916.59;20776049;28;19952;-56
2023/05/25 13:38:23;;;;;;;;;;;;;;;16.13;66.83;102915.00;20772966;28;19929;-56
2023/05/25 13:48:46;;;;;;;;;;;;;;;15.97;66.99;102922.25;20773889;28;20285;-56
2023/05/25 13:59:08;;;;;;;;;;;;;;;16.09;67.68;102921.16;20777274;28;20012;-57
2023/05/25 14:09:30;;;;;;;;;;;;;;;15.92;68.02;102925.84;20749840;28;20427;-56
2023/05/25 14:19:52;;;;;;;;;;;;;;;15.81;68.25;102914.72;20771280;28;19964;-56
2023/05/25 14:30:13;;;;;;;;;;;;;;;15.79;68.43;102926.94;20761511;28;20007;-57
2023/05/25 14:40:35;;;;;;;;;;;;;;;15.57;68.28;102912.53;20769538;28;19925;-56
2023/05/25 14:50:58;;;;;;;;;;;;;;;15.45;65.15;102924.06;20763272;28;19930;-57
2023/05/25 15:01:19;;;;;;;;;;;;;;;15.44;67.76;102926.69;20781167;28;20877;-57
2023/05/25 15:11:43;;;;;;;;;;;;;;;15.42;68.21;102926.69;20782124;28;19953;-57
2023/05/25 15:22:04;;;;;;;;;;;;;;;15.37;65.95;102922.41;20796826;28;20447;-56
2023/05/25 15:32:26;;;;;;;;;;;;;;;15.29;67.98;102948.63;20783421;28;19929;-55
2023/05/25 15:42:47;;;;;;;;;;;;;;;15.23;66.96;102932.22;20777710;28;19940;-55
2023/05/25 15:53:09;;;;;;;;;;;;;;;15.39;68.24;102937.16;20788060;28;19925;-55
2023/05/25 16:03:30;;;;;;;;;;;;;;;15.46;68.56;102936.22;20790568;28;19925;-55
2023/05/25 16:13:52;;;;;;;;;;;;;;;15.65;64.83;102934.16;20785049;28;19929;-56
2023/05/25 16:24:14;;;;;;;;;;;;;;;16.01;63.95;102933.50;20772920;28;19925;-56
2023/05/25 16:34:35;;;;;;;;;;;;;;;16.22;66.03;102935.72;20776043;28;19931;-55
2023/05/25 16:44:56;;;;;;;;;;;;;;;16.34;66.08;102937.19;20788540;28;19936;-57
2023/05/25 16:55:18;;;;;;;;;;;;;;;16.34;61.29;102942.44;20772505;28;19940;-55
2023/05/25 17:05:39;;;;;;;;;;;;;;;16.37;60.25;102945.00;20774288;28;19952;-56
2023/05/25 17:16:01;;;;;;;;;;;;;;;16.29;66.51;102923.38;20775884;28;19931;-56
2023/05/25 17:26:22;;;;;;;;;;;;;;;16.16;67.09;102933.22;20758701;28;19929;-54
2023/05/25 17:36:44;;;;;;;;;;;;;;;15.85;67.97;102942.50;20782183;28;19925;-55
2023/05/25 17:47:06;;;;;;;;;;;;;;;15.57;68.00;102941.25;20782776;28;19925;-56
2023/05/25 17:57:31;;;;;;;;;;;;;;;15.37;67.11;102951.09;20770721;28;20373;-55
2023/05/25 18:07:52;;;;;;;;;;;;;;;15.16;68.69;102962.75;20768099;28;20004;-56
2023/05/25 18:18:15;;;;;;;;;;;;;;;14.79;64.12;102957.19;20778289;28;20398;-56
2023/05/25 18:28:36;;;;;;;;;;;;;;;14.68;69.15;102955.59;20775230;28;19925;-56
2023/05/25 18:38:58;;;;;;;;;;;;;;;14.52;69.76;102957.50;20794147;28;19929;-56
2023/05/25 18:49:19;;;;;;;;;;;;;;;14.22;69.79;102955.25;20785386;28;19952;-56
2023/05/25 18:59:41;;;;;;;;;;;;;;;13.96;70.63;102967.66;20781138;28;19945;-55
2023/05/25 19:10:02;;;;;;;;;;;;;;;13.88;69.58;102969.47;20793191;28;20024;-56
2023/05/25 19:20:24;;;;;;;;;;;;;;;13.72;70.78;102983.47;20794128;28;20315;-55
2023/05/25 19:30:45;;;;;;;;;;;;;;;13.47;69.89;102988.03;20796688;28;19933;-55
2023/05/25 19:41:06;;;;;;;;;;;;;;;13.36;71.15;103004.56;20795909;28;20304;-54
2023/05/25 19:51:30;;;;;;;;;;;;;;;13.21;71.82;103002.06;20780472;28;19976;-55
2023/05/25 20:01:59;;;;;;;;;;;;;;;13.09;72.43;103009.06;20791237;28;20287;-56
2023/05/25 20:12:20;;;;;;;;;;;;;;;12.85;72.05;103010.88;20765121;28;19944;-55
2023/05/25 20:22:42;;;;;;;;;;;;;;;12.74;73.07;103004.88;20769078;28;20318;-54
2023/05/25 20:33:05;;;;;;;;;;;;;;;12.62;73.38;103018.75;20781616;28;19925;-55
2023/05/25 20:43:27;;;;;;;;;;;;;;;12.52;73.98;103017.06;20778554;28;19929;-55
2023/05/25 20:53:48;;;;;;;;;;;;;;;12.42;73.68;103019.66;20791193;28;19935;-55
2023/05/25 21:04:10;;;;;;;;;;;;;;;12.33;74.45;103020.56;20779040;28;19929;-56
2023/05/25 21:14:32;;;;;;;;;;;;;;;12.19;74.23;103027.53;20775070;28;19999;-56
2023/05/25 21:24:53;;;;;;;;;;;;;;;12.02;74.77;103024.06;20778894;28;20016;-54
2023/05/25 21:35:17;;;;;;;;;;;;;;;11.98;74.75;103033.59;20770246;28;20272;-56
2023/05/25 21:45:39;;;;;;;;;;;;;;;11.93;74.78;103039.63;20763009;28;20519;-56
2023/05/25 21:56:00;;;;;;;;;;;;;;;11.84;75.83;103044.81;20775138;28;20079;-55
2023/05/25 22:06:21;;;;;;;;;;;;;;;11.73;75.34;103051.72;20762421;28;19934;-56
2023/05/25 22:16:43;;;;;;;;;;;;;;;11.58;76.11;103049.06;20771562;28;20353;-56
2023/05/25 22:27:04;;;;;;;;;;;;;;;11.57;75.84;103044.78;20774072;28;20478;-56
2023/05/25 22:37:26;;;;;;;;;;;;;;;11.45;76.40;103042.13;20771932;28;20656;-56
2023/05/25 22:47:47;;;;;;;;;;;;;;;11.37;76.63;103043.88;20767343;28;19940;-56
2023/05/25 22:58:09;;;;;;;;;;;;;;;11.23;76.44;103053.31;20768391;28;20274;-56
2023/05/25 23:08:30;;;;;;;;;;;;;;;11.07;77.33;103053.28;20783889;28;20035;-56
2023/05/25 23:18:52;;;;;;;;;;;;;;;11.01;77.89;103058.44;20772729;28;19943;-56
2023/05/25 23:29:13;;;;;;;;;;;;;;;10.95;77.90;103054.97;20787605;28;19933;-54
2023/05/25 23:39:35;;;;;;;;;;;;;;;10.84;78.26;103054.03;20785728;28;19980;-54
2023/05/25 23:49:57;;;;;;;;;;;;;;;10.73;78.48;103046.19;20781720;28;20398;-56
